createdAt,value
2022-09-10T13:21:46.115Z,99373.09
2022-09-10T13:23:18.639Z,99378.13
2022-09-10T14:14:14.777Z,99394.03
2022-09-10T14:15:47.459Z,99396.41
2022-09-10T14:17:31.901Z,99394.25
2022-09-10T14:19:08.301Z,99396.16
2022-09-10T14:20:40.941Z,99403.97
2022-09-10T14:22:17.501Z,99392.88
2022-09-10T14:23:50.061Z,99385.66
2022-09-10T14:25:39.905Z,99389.38
2022-09-10T14:27:28.861Z,99388.63
2022-09-10T14:29:03.821Z,99386.41
2022-09-10T14:30:36.370Z,99380.63
2022-09-10T14:32:41.422Z,99390.38
2022-09-10T14:34:36.622Z,99396.94
2022-09-10T14:36:31.818Z,99402.09
2022-09-10T14:38:09.577Z,99399.84
2022-09-10T14:39:45.128Z,99405.84
2022-09-10T14:41:25.587Z,99411.16
2022-09-10T14:43:16.861Z,99407.50
2022-09-10T14:44:49.261Z,99403.44
2022-09-10T14:47:00.221Z,99405.13
2022-09-10T14:48:45.496Z,99402.50
2022-09-10T14:50:28.458Z,99398.31
2022-09-10T14:52:01.979Z,99392.41
2022-09-10T14:53:34.380Z,99384.13
2022-09-10T14:55:06.865Z,99387.59
2022-09-10T14:56:44.531Z,99390.16
2022-09-10T14:58:16.941Z,99388.81
2022-09-10T14:59:50.788Z,99403.00
2022-09-10T15:01:26.094Z,99408.44
2022-09-10T15:02:58.938Z,99407.84
2022-09-10T15:04:32.861Z,99408.13
2022-09-10T15:06:05.503Z,99419.38
2022-09-10T15:07:37.978Z,99415.34
2022-09-10T15:09:14.541Z,99413.41
2022-09-10T15:10:49.421Z,99417.81
2022-09-10T15:12:28.282Z,99410.03
2022-09-10T15:14:03.642Z,99412.31
2022-09-10T15:15:37.607Z,99422.06
2022-09-10T15:17:14.169Z,99417.50
2022-09-10T15:18:46.490Z,99421.25
2022-09-10T15:20:18.869Z,99423.63
2022-09-10T15:21:51.494Z,99416.28
2022-09-10T15:23:23.843Z,99418.94
2022-09-10T15:25:09.728Z,99420.63
2022-09-10T15:26:43.457Z,99442.84
2022-09-10T15:28:15.858Z,99443.94
2022-09-10T15:29:48.251Z,99445.88
2022-09-10T15:31:20.612Z,99443.34
2022-09-10T15:32:54.813Z,99439.88
2022-09-10T15:34:27.341Z,99427.63
2022-09-10T15:36:00.690Z,99431.94
2022-09-10T15:37:33.025Z,99445.28
2022-09-10T15:39:06.496Z,99447.81
2022-09-10T15:40:39.318Z,99451.53
2022-09-10T15:42:12.103Z,99468.97
2022-09-10T15:43:45.016Z,99458.38
2022-09-10T15:45:17.412Z,99466.69
2022-09-10T15:46:49.849Z,99472.09
2022-09-10T15:48:22.283Z,99469.00
2022-09-10T15:49:54.608Z,99472.72
2022-09-10T15:51:27.294Z,99465.88
2022-09-10T15:53:00.371Z,99466.97
2022-09-10T15:54:34.425Z,99465.19
2022-09-10T15:56:08.303Z,99461.44
2022-09-10T15:57:41.023Z,99467.31
2022-09-10T15:59:16.859Z,99462.53
2022-09-10T16:00:49.073Z,99473.25
2022-09-10T16:02:21.463Z,99471.53
2022-09-10T16:03:56.142Z,99476.72
2022-09-10T16:05:29.022Z,99484.03
2022-09-10T16:07:01.357Z,99494.72
2022-09-10T16:08:34.716Z,99489.69
2022-09-10T16:10:07.401Z,99478.38
2022-09-10T16:11:41.692Z,99480.03
2022-09-10T16:13:13.994Z,99481.38
2022-09-10T16:14:47.053Z,99473.81
2022-09-10T16:16:21.745Z,99475.72
2022-09-10T16:17:54.394Z,99480.63
2022-09-10T16:19:26.818Z,99482.69
2022-09-10T16:21:13.903Z,99492.19
2022-09-10T16:22:46.250Z,99479.44
2022-09-10T16:24:18.619Z,99471.50
2022-09-10T16:25:57.785Z,99452.41
2022-09-10T16:27:30.095Z,99462.34
2022-09-10T16:29:06.315Z,99463.59
2022-09-10T16:30:39.199Z,99460.56
2022-09-10T16:32:11.576Z,99461.75
2022-09-10T16:33:44.448Z,99463.66
2022-09-10T16:35:17.188Z,99460.44
2022-09-10T16:36:50.052Z,99458.75
2022-09-10T16:38:22.566Z,99464.25
2022-09-10T16:39:55.728Z,99475.66
2022-09-10T16:41:28.002Z,99478.91
2022-09-10T16:43:00.268Z,99473.97
2022-09-10T16:44:32.617Z,99476.84
2022-09-10T16:46:09.841Z,99470.59
2022-09-10T16:47:42.274Z,99461.22
2022-09-10T16:49:15.680Z,99465.56
2022-09-10T16:50:48.020Z,99459.81
2022-09-10T16:52:20.374Z,99462.91
2022-09-10T16:53:57.888Z,99466.50
2022-09-10T16:55:30.573Z,99469.44
2022-09-10T16:57:03.003Z,99470.53
2022-09-10T16:58:36.749Z,99464.38
2022-09-10T17:00:11.615Z,99468.63
2022-09-10T17:01:45.217Z,99469.44
2022-09-10T17:03:17.627Z,99471.47
2022-09-10T17:04:49.928Z,99468.00
2022-09-10T17:06:27.411Z,99474.84
2022-09-10T17:08:00.387Z,99478.66
2022-09-10T17:09:32.834Z,99478.75
2022-09-10T17:11:05.242Z,99478.28
2022-09-10T17:12:37.773Z,99486.41
2022-09-10T17:14:10.880Z,99484.13
2022-09-10T17:15:43.631Z,99478.97
2022-09-10T17:17:15.932Z,99482.56
2022-09-10T17:18:48.896Z,99490.38
2022-09-10T17:20:21.358Z,99493.94
2022-09-10T17:21:56.096Z,99493.72
2022-09-10T17:23:28.449Z,99505.47
2022-09-10T17:25:00.709Z,99505.56
2022-09-10T17:26:34.528Z,99508.44
2022-09-10T17:28:06.901Z,99509.28
2022-09-10T17:29:39.456Z,99504.22
2022-09-10T17:31:14.849Z,99508.56
2022-09-10T17:32:47.163Z,99510.47
2022-09-10T17:34:21.845Z,99506.13
2022-09-10T17:35:58.683Z,99511.28
2022-09-10T17:37:31.358Z,99513.31
2022-09-10T17:39:04.102Z,99528.19
2022-09-10T17:40:38.884Z,99529.13
2022-09-10T17:42:11.286Z,99525.66
2022-09-10T17:43:44.301Z,99537.06
2022-09-10T17:46:49.504Z,99545.19
2022-09-10T17:48:26.300Z,99540.03
2022-09-10T17:50:00.400Z,99555.13
2022-09-10T17:51:34.420Z,99549.00
2022-09-10T17:53:07.784Z,99556.09
2022-09-10T17:54:40.140Z,99549.94
2022-09-10T17:56:14.861Z,99552.47
2022-09-10T17:57:47.099Z,99565.28
2022-09-10T17:59:19.654Z,99560.19
2022-09-10T18:00:58.872Z,99565.47
2022-09-10T18:02:31.932Z,99564.03
2022-09-10T18:04:05.213Z,99561.28
2022-09-10T18:05:38.453Z,99550.19
2022-09-10T18:07:11.267Z,99547.75
2022-09-10T18:08:43.836Z,99547.75
2022-09-10T18:10:16.600Z,99556.53
2022-09-10T18:11:49.006Z,99572.22
2022-09-10T18:13:21.355Z,99565.28
2022-09-10T18:14:53.687Z,99561.66
2022-09-10T18:16:28.689Z,99566.84
2022-09-10T18:18:01.933Z,99564.44
2022-09-10T18:19:34.583Z,99560.75
2022-09-10T18:21:18.141Z,99553.03
2022-09-10T18:22:50.636Z,99551.78
2022-09-10T18:24:24.420Z,99553.50
2022-09-10T18:25:56.780Z,99550.22
2022-09-10T18:27:29.255Z,99552.22
2022-09-10T18:29:14.084Z,99548.66
2022-09-10T18:30:46.517Z,99547.28
2022-09-10T18:32:18.732Z,99557.84
2022-09-10T18:33:54.302Z,99550.25
2022-09-10T18:35:26.760Z,99556.28
2022-09-10T18:37:01.062Z,99542.13
2022-09-10T18:38:33.538Z,99543.19
2022-09-10T18:40:07.617Z,99548.56
2022-09-10T18:41:42.769Z,99539.81
2022-09-10T18:43:15.126Z,99545.19
2022-09-10T18:44:48.451Z,99542.56
2022-09-10T18:46:21.288Z,99545.81
2022-09-10T18:47:53.599Z,99541.81
2022-09-10T18:49:27.017Z,99540.16
2022-09-10T18:51:07.512Z,99532.31
2022-09-10T18:52:39.783Z,99523.25
2022-09-10T18:54:13.908Z,99540.53
2022-09-10T18:55:47.485Z,99537.16
2022-09-10T18:57:19.847Z,99538.84
2022-09-10T18:59:00.903Z,99533.47
2022-09-10T19:20:26.899Z,99546.78
2022-09-10T19:22:06.580Z,99537.09
2022-09-10T19:23:40.717Z,99543.59
2022-09-10T19:25:12.784Z,99543.00
2022-09-10T19:26:45.421Z,99541.44
2022-09-10T19:28:17.873Z,99543.53
2022-09-10T19:29:50.678Z,99543.63
2022-09-10T19:31:23.079Z,99538.56
2022-09-10T19:32:56.711Z,99543.84
2022-09-10T19:34:31.381Z,99545.72
2022-09-10T19:36:06.741Z,99542.34
2022-09-10T19:37:39.012Z,99543.53
2022-09-10T19:39:13.804Z,99541.72
2022-09-10T19:40:46.543Z,99551.75
2022-09-10T19:42:19.148Z,99547.41
2022-09-10T19:43:53.701Z,99549.19
2022-09-10T19:45:27.711Z,99549.50
2022-09-10T19:46:59.930Z,99546.13
2022-09-10T19:48:33.136Z,99554.97
2022-09-10T19:50:05.667Z,99561.72
2022-09-10T19:51:38.613Z,99564.75
2022-09-10T20:10:34.229Z,99572.50
2022-09-10T20:12:07.225Z,99568.56
2022-09-10T20:13:39.497Z,99562.44
2022-09-10T20:15:11.764Z,99552.25
2022-09-10T20:16:45.351Z,99568.25
2022-09-10T20:18:17.635Z,99572.88
2022-09-10T20:19:50.147Z,99580.66
2022-09-10T20:21:28.647Z,99568.38
2022-09-10T20:23:01.692Z,99564.56
2022-09-10T20:24:34.541Z,99575.84
2022-09-10T20:26:12.248Z,99581.28
2022-09-10T20:27:44.728Z,99580.75
2022-09-10T20:29:18.645Z,99580.75
2022-09-10T20:30:50.862Z,99574.19
2022-09-10T20:32:24.151Z,99585.44
2022-09-10T20:33:57.416Z,99586.19
2022-09-10T20:35:30.668Z,99578.59
2022-09-10T20:37:04.218Z,99581.88
2022-09-10T20:38:36.343Z,99587.63
2022-09-10T20:40:08.670Z,99580.78
2022-09-10T20:41:41.206Z,99588.56
2022-09-10T20:43:13.952Z,99593.19
2022-09-10T20:44:46.295Z,99597.50
2022-09-10T20:46:19.536Z,99593.94
2022-09-10T20:47:54.544Z,99599.94
2022-09-10T20:49:26.743Z,99600.34
2022-09-10T20:50:59.937Z,99597.50
2022-09-10T20:52:32.275Z,99606.44
2022-09-10T20:54:05.239Z,99601.28
2022-09-10T20:55:38.064Z,99599.69
2022-09-10T20:57:11.772Z,99602.22
2022-09-10T20:58:44.433Z,99603.81
2022-09-10T21:00:16.941Z,99605.47
2022-09-10T21:01:51.113Z,99600.88
2022-09-10T21:03:23.805Z,99607.84
2022-09-10T21:04:55.886Z,99605.97
2022-09-10T21:06:30.458Z,99603.22
2022-09-10T21:08:04.505Z,99605.00
2022-09-10T21:13:27.123Z,99606.31
2022-09-10T21:14:59.144Z,99608.00
2022-09-10T21:16:47.692Z,99608.44
2022-09-10T21:18:19.995Z,99599.16
2022-09-10T21:19:52.391Z,99599.78
2022-09-10T21:21:27.406Z,99606.00
2022-09-10T21:22:59.547Z,99597.38
2022-09-10T21:24:31.546Z,99601.88
2022-09-10T21:26:05.168Z,99600.09
2022-09-10T21:27:39.928Z,99603.69
2022-09-10T21:29:14.757Z,99608.72
2022-09-10T21:30:46.922Z,99595.97
2022-09-10T21:32:19.040Z,99605.75
2022-09-10T21:33:51.529Z,99596.28
2022-09-10T21:35:24.007Z,99598.06
2022-09-10T21:36:55.986Z,99601.44
2022-09-10T21:38:28.146Z,99598.69
2022-09-10T21:40:01.146Z,99604.69
2022-09-10T21:41:38.655Z,99595.97
2022-09-10T21:43:10.634Z,99596.94
2022-09-10T21:44:42.715Z,99589.13
2022-09-10T21:46:15.318Z,99590.81
2022-09-10T21:47:48.036Z,99601.22
2022-09-10T21:49:20.763Z,99599.56
2022-09-10T21:50:59.843Z,99602.72
2022-09-10T21:52:31.820Z,99611.84
2022-09-10T21:54:05.023Z,99612.81
2022-09-10T21:55:37.013Z,99617.59
2022-09-10T21:57:11.736Z,99612.72
2022-09-10T21:58:45.593Z,99607.16
2022-09-10T22:00:19.356Z,99600.50
2022-09-10T22:01:51.512Z,99610.09
2022-09-10T22:03:23.827Z,99605.09
2022-09-10T22:04:56.107Z,99599.22
2022-09-10T22:06:33.141Z,99602.38
2022-09-10T22:08:07.369Z,99598.34
2022-09-10T22:11:32.907Z,99604.25
2022-09-10T22:13:04.974Z,99611.63
2022-09-10T22:14:36.956Z,99603.72
2022-09-10T22:16:10.255Z,99601.19
2022-09-10T22:17:42.171Z,99611.22
2022-09-10T22:19:18.407Z,99604.34
2022-09-10T22:20:50.483Z,99610.66
2022-09-10T22:22:22.526Z,99608.97
2022-09-10T22:23:54.545Z,99615.38
2022-09-10T22:27:03.182Z,99620.44
2022-09-10T22:28:36.026Z,99617.81
2022-09-10T22:30:08.636Z,99614.44
2022-09-10T22:31:40.667Z,99608.41
2022-09-10T22:33:12.857Z,99613.50
2022-09-10T22:34:45.886Z,99607.28
2022-09-10T22:36:23.998Z,99601.94
2022-09-10T22:37:56.761Z,99594.34
2022-09-10T22:39:30.050Z,99600.22
2022-09-10T22:41:02.659Z,99608.69
2022-09-10T22:42:34.682Z,99606.53
2022-09-10T22:44:07.148Z,99604.19
2022-09-10T22:45:40.267Z,99598.94
2022-09-10T22:47:12.788Z,99596.41
2022-09-10T22:48:45.817Z,99611.78
2022-09-10T22:55:24.685Z,99603.91
2022-09-10T22:56:59.049Z,99608.78
2022-09-10T22:58:31.677Z,99608.03
2022-09-10T23:00:04.478Z,99614.13
2022-09-10T23:01:38.235Z,99614.34
2022-09-10T23:03:10.302Z,99613.59
2022-09-10T23:04:45.376Z,99612.84
2022-09-10T23:06:22.486Z,99615.38
2022-09-10T23:07:54.512Z,99604.59
2022-09-10T23:09:26.595Z,99610.50
2022-09-10T23:11:17.572Z,99615.56
2022-09-10T23:12:49.684Z,99605.44
2022-09-10T23:14:22.390Z,99617.56
2022-09-10T23:15:55.262Z,99617.66
2022-09-10T23:23:17.823Z,99615.56
2022-09-10T23:24:49.796Z,99605.34
2022-09-10T23:26:22.672Z,99611.44
2022-09-10T23:27:56.221Z,99604.41
2022-09-10T23:29:28.413Z,99611.25
2022-09-10T23:31:10.745Z,99599.59
2022-09-10T23:32:44.019Z,99601.66
2022-09-10T23:34:19.448Z,99600.44
2022-09-10T23:35:52.010Z,99612.00
2022-09-10T23:37:25.087Z,99606.16
2022-09-10T23:39:00.812Z,99603.16
2022-09-10T23:40:34.290Z,99607.13
2022-09-10T23:42:07.043Z,99608.91
2022-09-10T23:43:40.701Z,99608.63
2022-09-10T23:45:12.767Z,99606.47
2022-09-10T23:46:44.992Z,99611.66
2022-09-10T23:48:18.991Z,99611.81
2022-09-10T23:53:11.478Z,99611.72
2022-09-10T23:54:43.510Z,99621.22
2022-09-10T23:56:18.187Z,99620.28
2022-09-10T23:57:50.171Z,99615.94
2022-09-10T23:59:22.312Z,99610.59
